sensor_id;sensor_type;location;lat;lon;timestamp;P1;durP1;ratioP1;P2;durP2;ratioP2
55218;SDS011;65463;43.864;20.136;2024-03-02T00:00:10;14.07;;;5.68;;
55218;SDS011;65463;43.864;20.136;2024-03-02T00:02:43;21.80;;;6.75;;
55218;SDS011;65463;43.864;20.136;2024-03-02T00:05:13;17.65;;;6.40;;
55218;SDS011;65463;43.864;20.136;2024-03-02T00:07:43;15.52;;;5.85;;
55218;SDS011;65463;43.864;20.136;2024-03-02T00:10:14;25.08;;;7.00;;
55218;SDS011;65463;43.864;20.136;2024-03-02T00:12:42;19.00;;;6.50;;
55218;SDS011;65463;43.864;20.136;2024-03-02T00:15:27;17.85;;;6.75;;
55218;SDS011;65463;43.864;20.136;2024-03-02T00:17:56;20.33;;;6.30;;
55218;SDS011;65463;43.864;20.136;2024-03-02T00:20:22;19.73;;;7.03;;
55218;SDS011;65463;43.864;20.136;2024-03-02T00:23:01;18.33;;;6.38;;
55218;SDS011;65463;43.864;20.136;2024-03-02T00:25:35;16.65;;;6.03;;
55218;SDS011;65463;43.864;20.136;2024-03-02T00:28:13;17.27;;;6.30;;
55218;SDS011;65463;43.864;20.136;2024-03-02T00:33:08;14.70;;;5.63;;
55218;SDS011;65463;43.864;20.136;2024-03-02T00:38:05;13.52;;;5.72;;
55218;SDS011;65463;43.864;20.136;2024-03-02T00:40:31;16.57;;;5.73;;
55218;SDS011;65463;43.864;20.136;2024-03-02T00:42:58;17.90;;;6.72;;
55218;SDS011;65463;43.864;20.136;2024-03-02T00:45:25;14.98;;;5.55;;
55218;SDS011;65463;43.864;20.136;2024-03-02T00:47:51;12.35;;;4.72;;
55218;SDS011;65463;43.864;20.136;2024-03-02T00:50:20;12.18;;;4.85;;
55218;SDS011;65463;43.864;20.136;2024-03-02T00:52:46;13.15;;;4.32;;
55218;SDS011;65463;43.864;20.136;2024-03-02T00:55:15;10.27;;;4.50;;
55218;SDS011;65463;43.864;20.136;2024-03-02T00:57:44;8.70;;;4.18;;
55218;SDS011;65463;43.864;20.136;2024-03-02T01:00:11;9.68;;;4.30;;
55218;SDS011;65463;43.864;20.136;2024-03-02T01:02:40;8.98;;;4.15;;
55218;SDS011;65463;43.864;20.136;2024-03-02T01:05:09;9.77;;;4.60;;
55218;SDS011;65463;43.864;20.136;2024-03-02T01:07:35;13.98;;;4.90;;
55218;SDS011;65463;43.864;20.136;2024-03-02T01:10:04;10.70;;;5.07;;
55218;SDS011;65463;43.864;20.136;2024-03-02T01:12:35;11.05;;;5.00;;
55218;SDS011;65463;43.864;20.136;2024-03-02T01:15:01;13.85;;;5.22;;
55218;SDS011;65463;43.864;20.136;2024-03-02T01:17:29;12.68;;;5.15;;
55218;SDS011;65463;43.864;20.136;2024-03-02T01:19:55;10.30;;;4.78;;
55218;SDS011;65463;43.864;20.136;2024-03-02T01:22:22;11.68;;;5.18;;
55218;SDS011;65463;43.864;20.136;2024-03-02T01:24:50;18.25;;;5.43;;
55218;SDS011;65463;43.864;20.136;2024-03-02T01:27:16;12.45;;;5.05;;
55218;SDS011;65463;43.864;20.136;2024-03-02T01:29:42;12.80;;;4.75;;
55218;SDS011;65463;43.864;20.136;2024-03-02T01:32:08;13.27;;;5.15;;
55218;SDS011;65463;43.864;20.136;2024-03-02T01:34:34;13.23;;;4.65;;
55218;SDS011;65463;43.864;20.136;2024-03-02T01:36:59;13.35;;;4.85;;
55218;SDS011;65463;43.864;20.136;2024-03-02T01:39:25;13.88;;;5.40;;
55218;SDS011;65463;43.864;20.136;2024-03-02T01:41:51;10.48;;;5.05;;
55218;SDS011;65463;43.864;20.136;2024-03-02T01:44:17;14.25;;;5.75;;
55218;SDS011;65463;43.864;20.136;2024-03-02T01:46:43;15.77;;;5.85;;
55218;SDS011;65463;43.864;20.136;2024-03-02T01:49:09;15.95;;;5.82;;
55218;SDS011;65463;43.864;20.136;2024-03-02T01:51:34;19.90;;;6.10;;
55218;SDS011;65463;43.864;20.136;2024-03-02T01:54:00;16.00;;;6.30;;
55218;SDS011;65463;43.864;20.136;2024-03-02T01:56:26;13.10;;;5.80;;
55218;SDS011;65463;43.864;20.136;2024-03-02T01:58:52;14.80;;;5.40;;
55218;SDS011;65463;43.864;20.136;2024-03-02T02:01:18;17.33;;;5.97;;
55218;SDS011;65463;43.864;20.136;2024-03-02T02:03:44;19.73;;;6.20;;
55218;SDS011;65463;43.864;20.136;2024-03-02T02:06:10;26.42;;;6.57;;
55218;SDS011;65463;43.864;20.136;2024-03-02T02:08:38;29.40;;;7.13;;
55218;SDS011;65463;43.864;20.136;2024-03-02T02:11:04;22.15;;;7.00;;
55218;SDS011;65463;43.864;20.136;2024-03-02T02:13:30;25.80;;;7.05;;
55218;SDS011;65463;43.864;20.136;2024-03-02T02:16:03;16.10;;;6.07;;
55218;SDS011;65463;43.864;20.136;2024-03-02T02:18:30;15.10;;;6.07;;
55218;SDS011;65463;43.864;20.136;2024-03-02T02:20:56;22.85;;;6.97;;
55218;SDS011;65463;43.864;20.136;2024-03-02T02:23:22;25.40;;;6.80;;
55218;SDS011;65463;43.864;20.136;2024-03-02T02:25:48;24.30;;;6.40;;
55218;SDS011;65463;43.864;20.136;2024-03-02T02:28:15;20.08;;;5.80;;
55218;SDS011;65463;43.864;20.136;2024-03-02T02:30:41;14.95;;;5.75;;
55218;SDS011;65463;43.864;20.136;2024-03-02T02:33:08;18.92;;;6.47;;
55218;SDS011;65463;43.864;20.136;2024-03-02T02:35:34;18.20;;;5.45;;
55218;SDS011;65463;43.864;20.136;2024-03-02T02:38:00;18.95;;;6.10;;
55218;SDS011;65463;43.864;20.136;2024-03-02T02:40:27;19.58;;;5.47;;
55218;SDS011;65463;43.864;20.136;2024-03-02T02:42:56;15.60;;;5.90;;
55218;SDS011;65463;43.864;20.136;2024-03-02T02:45:22;13.77;;;5.28;;
55218;SDS011;65463;43.864;20.136;2024-03-02T02:47:48;16.40;;;5.93;;
55218;SDS011;65463;43.864;20.136;2024-03-02T02:50:15;23.65;;;6.10;;
55218;SDS011;65463;43.864;20.136;2024-03-02T02:52:41;25.33;;;6.93;;
55218;SDS011;65463;43.864;20.136;2024-03-02T02:55:09;17.17;;;6.32;;
55218;SDS011;65463;43.864;20.136;2024-03-02T02:57:35;18.33;;;6.38;;
55218;SDS011;65463;43.864;20.136;2024-03-02T03:00:04;13.85;;;6.07;;
55218;SDS011;65463;43.864;20.136;2024-03-02T03:02:35;19.27;;;6.10;;
55218;SDS011;65463;43.864;20.136;2024-03-02T03:05:01;15.60;;;6.22;;
55218;SDS011;65463;43.864;20.136;2024-03-02T03:07:27;19.42;;;5.70;;
55218;SDS011;65463;43.864;20.136;2024-03-02T03:09:53;22.27;;;6.40;;
55218;SDS011;65463;43.864;20.136;2024-03-02T03:12:20;19.25;;;6.68;;
55218;SDS011;65463;43.864;20.136;2024-03-02T03:14:46;21.08;;;6.03;;
55218;SDS011;65463;43.864;20.136;2024-03-02T03:17:12;18.70;;;5.82;;
55218;SDS011;65463;43.864;20.136;2024-03-02T03:19:38;22.15;;;6.75;;
55218;SDS011;65463;43.864;20.136;2024-03-02T03:22:05;14.43;;;5.68;;
55218;SDS011;65463;43.864;20.136;2024-03-02T03:24:31;20.55;;;6.10;;
55218;SDS011;65463;43.864;20.136;2024-03-02T03:26:58;22.95;;;5.95;;
55218;SDS011;65463;43.864;20.136;2024-03-02T03:29:24;18.98;;;6.57;;
55218;SDS011;65463;43.864;20.136;2024-03-02T03:31:50;17.08;;;5.97;;
55218;SDS011;65463;43.864;20.136;2024-03-02T03:34:16;21.27;;;5.93;;
55218;SDS011;65463;43.864;20.136;2024-03-02T03:36:45;16.70;;;6.15;;
55218;SDS011;65463;43.864;20.136;2024-03-02T03:39:11;19.90;;;6.07;;
55218;SDS011;65463;43.864;20.136;2024-03-02T03:41:37;17.98;;;5.78;;
55218;SDS011;65463;43.864;20.136;2024-03-02T03:44:04;17.15;;;5.80;;
55218;SDS011;65463;43.864;20.136;2024-03-02T03:46:32;15.07;;;5.57;;
55218;SDS011;65463;43.864;20.136;2024-03-02T03:48:58;15.25;;;4.90;;
55218;SDS011;65463;43.864;20.136;2024-03-02T03:51:28;10.23;;;5.05;;
55218;SDS011;65463;43.864;20.136;2024-03-02T03:53:55;12.48;;;5.00;;
55218;SDS011;65463;43.864;20.136;2024-03-02T03:56:21;10.73;;;4.78;;
55218;SDS011;65463;43.864;20.136;2024-03-02T03:58:48;16.80;;;5.10;;
55218;SDS011;65463;43.864;20.136;2024-03-02T04:01:14;22.50;;;5.95;;
55218;SDS011;65463;43.864;20.136;2024-03-02T04:03:40;18.63;;;5.80;;
55218;SDS011;65463;43.864;20.136;2024-03-02T04:06:06;14.15;;;5.45;;
55218;SDS011;65463;43.864;20.136;2024-03-02T04:08:32;15.10;;;5.55;;
55218;SDS011;65463;43.864;20.136;2024-03-02T04:10:58;17.67;;;6.05;;
55218;SDS011;65463;43.864;20.136;2024-03-02T04:13:25;13.57;;;5.43;;
55218;SDS011;65463;43.864;20.136;2024-03-02T04:15:51;14.18;;;5.50;;
55218;SDS011;65463;43.864;20.136;2024-03-02T04:18:19;13.40;;;5.30;;
55218;SDS011;65463;43.864;20.136;2024-03-02T04:20:53;12.63;;;4.70;;
55218;SDS011;65463;43.864;20.136;2024-03-02T04:23:19;17.48;;;4.93;;
55218;SDS011;65463;43.864;20.136;2024-03-02T04:25:45;18.63;;;5.15;;
55218;SDS011;65463;43.864;20.136;2024-03-02T04:28:14;13.27;;;5.40;;
55218;SDS011;65463;43.864;20.136;2024-03-02T04:30:40;13.73;;;4.70;;
55218;SDS011;65463;43.864;20.136;2024-03-02T04:33:07;13.57;;;4.82;;
55218;SDS011;65463;43.864;20.136;2024-03-02T04:35:35;13.48;;;4.95;;
55218;SDS011;65463;43.864;20.136;2024-03-02T04:38:01;12.32;;;4.97;;
55218;SDS011;65463;43.864;20.136;2024-03-02T04:40:27;17.55;;;5.45;;
55218;SDS011;65463;43.864;20.136;2024-03-02T04:42:58;10.98;;;4.57;;
55218;SDS011;65463;43.864;20.136;2024-03-02T04:45:24;15.55;;;4.30;;
55218;SDS011;65463;43.864;20.136;2024-03-02T04:47:51;10.45;;;4.20;;
55218;SDS011;65463;43.864;20.136;2024-03-02T04:50:19;10.00;;;4.20;;
55218;SDS011;65463;43.864;20.136;2024-03-02T04:52:48;11.90;;;4.53;;
55218;SDS011;65463;43.864;20.136;2024-03-02T04:55:14;13.65;;;4.88;;
55218;SDS011;65463;43.864;20.136;2024-03-02T04:57:52;10.07;;;4.53;;
55218;SDS011;65463;43.864;20.136;2024-03-02T05:00:21;10.90;;;4.60;;
55218;SDS011;65463;43.864;20.136;2024-03-02T05:02:48;11.63;;;4.90;;
55218;SDS011;65463;43.864;20.136;2024-03-02T05:05:19;13.00;;;4.85;;
55218;SDS011;65463;43.864;20.136;2024-03-02T05:07:47;14.23;;;4.90;;
55218;SDS011;65463;43.864;20.136;2024-03-02T05:10:13;16.55;;;4.90;;
55218;SDS011;65463;43.864;20.136;2024-03-02T05:12:40;13.98;;;5.10;;
55218;SDS011;65463;43.864;20.136;2024-03-02T05:15:09;12.48;;;5.13;;
55218;SDS011;65463;43.864;20.136;2024-03-02T05:17:38;14.75;;;5.30;;
55218;SDS011;65463;43.864;20.136;2024-03-02T05:20:08;11.52;;;5.40;;
55218;SDS011;65463;43.864;20.136;2024-03-02T05:22:35;11.35;;;4.97;;
55218;SDS011;65463;43.864;20.136;2024-03-02T05:25:04;11.90;;;4.75;;
55218;SDS011;65463;43.864;20.136;2024-03-02T05:27:31;13.40;;;5.15;;
55218;SDS011;65463;43.864;20.136;2024-03-02T05:29:59;14.75;;;5.82;;
55218;SDS011;65463;43.864;20.136;2024-03-02T05:32:26;13.75;;;5.28;;
55218;SDS011;65463;43.864;20.136;2024-03-02T05:34:57;13.25;;;4.93;;
55218;SDS011;65463;43.864;20.136;2024-03-02T05:37:25;14.25;;;5.18;;
55218;SDS011;65463;43.864;20.136;2024-03-02T05:39:51;15.98;;;5.35;;
55218;SDS011;65463;43.864;20.136;2024-03-02T05:42:18;16.88;;;5.70;;
55218;SDS011;65463;43.864;20.136;2024-03-02T05:44:44;13.80;;;5.40;;
55218;SDS011;65463;43.864;20.136;2024-03-02T05:47:11;16.27;;;5.53;;
55218;SDS011;65463;43.864;20.136;2024-03-02T05:49:41;13.18;;;5.25;;
55218;SDS011;65463;43.864;20.136;2024-03-02T05:52:08;16.98;;;5.53;;
55218;SDS011;65463;43.864;20.136;2024-03-02T05:54:37;10.93;;;5.03;;
55218;SDS011;65463;43.864;20.136;2024-03-02T05:57:04;16.35;;;5.28;;
55218;SDS011;65463;43.864;20.136;2024-03-02T05:59:57;15.93;;;5.35;;
55218;SDS011;65463;43.864;20.136;2024-03-02T06:02:25;13.07;;;5.07;;
55218;SDS011;65463;43.864;20.136;2024-03-02T06:04:53;15.15;;;5.35;;
55218;SDS011;65463;43.864;20.136;2024-03-02T06:07:22;16.30;;;5.63;;
55218;SDS011;65463;43.864;20.136;2024-03-02T06:09:51;16.80;;;5.53;;
55218;SDS011;65463;43.864;20.136;2024-03-02T06:12:22;17.67;;;5.45;;
55218;SDS011;65463;43.864;20.136;2024-03-02T06:14:49;14.07;;;5.35;;
55218;SDS011;65463;43.864;20.136;2024-03-02T06:17:15;14.18;;;5.47;;
55218;SDS011;65463;43.864;20.136;2024-03-02T06:19:41;15.80;;;5.03;;
55218;SDS011;65463;43.864;20.136;2024-03-02T06:22:07;16.17;;;5.28;;
55218;SDS011;65463;43.864;20.136;2024-03-02T06:24:35;12.48;;;5.43;;
55218;SDS011;65463;43.864;20.136;2024-03-02T06:27:04;14.50;;;5.77;;
55218;SDS011;65463;43.864;20.136;2024-03-02T06:29:37;15.45;;;5.63;;
55218;SDS011;65463;43.864;20.136;2024-03-02T06:32:07;15.15;;;5.38;;
55218;SDS011;65463;43.864;20.136;2024-03-02T06:34:33;12.98;;;4.88;;
55218;SDS011;65463;43.864;20.136;2024-03-02T06:36:59;14.45;;;5.20;;
55218;SDS011;65463;43.864;20.136;2024-03-02T06:39:25;15.70;;;5.40;;
55218;SDS011;65463;43.864;20.136;2024-03-02T06:41:52;14.23;;;5.05;;
55218;SDS011;65463;43.864;20.136;2024-03-02T06:44:18;16.15;;;5.47;;
55218;SDS011;65463;43.864;20.136;2024-03-02T06:46:44;14.88;;;5.82;;
55218;SDS011;65463;43.864;20.136;2024-03-02T06:49:10;18.70;;;6.35;;
55218;SDS011;65463;43.864;20.136;2024-03-02T06:51:36;13.30;;;5.63;;
55218;SDS011;65463;43.864;20.136;2024-03-02T06:54:02;13.15;;;5.68;;
55218;SDS011;65463;43.864;20.136;2024-03-02T06:56:29;14.98;;;5.68;;
55218;SDS011;65463;43.864;20.136;2024-03-02T06:58:55;13.85;;;6.03;;
55218;SDS011;65463;43.864;20.136;2024-03-02T07:01:22;14.60;;;5.28;;
55218;SDS011;65463;43.864;20.136;2024-03-02T07:03:50;12.32;;;5.28;;
55218;SDS011;65463;43.864;20.136;2024-03-02T07:06:16;15.40;;;6.43;;
55218;SDS011;65463;43.864;20.136;2024-03-02T07:08:42;14.30;;;6.20;;
55218;SDS011;65463;43.864;20.136;2024-03-02T07:11:08;22.02;;;7.78;;
55218;SDS011;65463;43.864;20.136;2024-03-02T07:13:34;14.52;;;6.63;;
55218;SDS011;65463;43.864;20.136;2024-03-02T07:16:01;15.23;;;6.25;;
55218;SDS011;65463;43.864;20.136;2024-03-02T07:18:46;15.38;;;6.57;;
55218;SDS011;65463;43.864;20.136;2024-03-02T07:21:17;12.35;;;5.15;;
55218;SDS011;65463;43.864;20.136;2024-03-02T07:23:48;13.77;;;5.53;;
55218;SDS011;65463;43.864;20.136;2024-03-02T07:26:16;15.60;;;6.50;;
55218;SDS011;65463;43.864;20.136;2024-03-02T07:28:46;13.87;;;5.70;;
55218;SDS011;65463;43.864;20.136;2024-03-02T07:31:18;13.02;;;5.78;;
55218;SDS011;65463;43.864;20.136;2024-03-02T07:33:44;12.02;;;5.10;;
55218;SDS011;65463;43.864;20.136;2024-03-02T07:36:11;12.85;;;5.53;;
55218;SDS011;65463;43.864;20.136;2024-03-02T07:38:38;14.00;;;6.40;;
55218;SDS011;65463;43.864;20.136;2024-03-02T07:41:07;13.82;;;6.20;;
55218;SDS011;65463;43.864;20.136;2024-03-02T07:43:33;15.50;;;7.35;;
55218;SDS011;65463;43.864;20.136;2024-03-02T07:45:59;16.95;;;6.65;;
55218;SDS011;65463;43.864;20.136;2024-03-02T07:48:26;10.07;;;5.15;;
55218;SDS011;65463;43.864;20.136;2024-03-02T07:50:52;14.23;;;5.90;;
55218;SDS011;65463;43.864;20.136;2024-03-02T07:53:18;10.02;;;4.38;;
55218;SDS011;65463;43.864;20.136;2024-03-02T07:55:44;12.10;;;5.65;;
55218;SDS011;65463;43.864;20.136;2024-03-02T07:58:10;9.65;;;4.70;;
55218;SDS011;65463;43.864;20.136;2024-03-02T08:00:38;8.73;;;4.70;;
55218;SDS011;65463;43.864;20.136;2024-03-02T08:03:04;9.90;;;5.20;;
55218;SDS011;65463;43.864;20.136;2024-03-02T08:05:31;9.93;;;5.45;;
55218;SDS011;65463;43.864;20.136;2024-03-02T08:07:57;14.75;;;7.40;;
55218;SDS011;65463;43.864;20.136;2024-03-02T08:10:24;9.45;;;5.28;;
55218;SDS011;65463;43.864;20.136;2024-03-02T08:12:50;11.35;;;5.78;;
55218;SDS011;65463;43.864;20.136;2024-03-02T08:15:17;9.68;;;4.88;;
55218;SDS011;65463;43.864;20.136;2024-03-02T08:17:43;11.15;;;5.60;;
55218;SDS011;65463;43.864;20.136;2024-03-02T08:20:14;8.38;;;4.30;;
55218;SDS011;65463;43.864;20.136;2024-03-02T08:22:40;8.48;;;4.00;;
55218;SDS011;65463;43.864;20.136;2024-03-02T08:25:06;8.32;;;4.22;;
55218;SDS011;65463;43.864;20.136;2024-03-02T08:27:34;8.35;;;4.40;;
55218;SDS011;65463;43.864;20.136;2024-03-02T08:30:01;9.75;;;3.70;;
55218;SDS011;65463;43.864;20.136;2024-03-02T08:32:28;8.63;;;3.60;;
55218;SDS011;65463;43.864;20.136;2024-03-02T08:34:54;7.18;;;3.35;;
55218;SDS011;65463;43.864;20.136;2024-03-02T08:37:20;10.90;;;5.32;;
55218;SDS011;65463;43.864;20.136;2024-03-02T08:39:46;10.40;;;3.55;;
55218;SDS011;65463;43.864;20.136;2024-03-02T08:42:12;10.52;;;3.72;;
55218;SDS011;65463;43.864;20.136;2024-03-02T08:44:37;7.93;;;3.75;;
55218;SDS011;65463;43.864;20.136;2024-03-02T08:47:03;9.70;;;3.35;;
55218;SDS011;65463;43.864;20.136;2024-03-02T08:49:29;6.10;;;3.20;;
55218;SDS011;65463;43.864;20.136;2024-03-02T08:51:55;7.43;;;3.45;;
55218;SDS011;65463;43.864;20.136;2024-03-02T08:54:21;7.47;;;3.45;;
55218;SDS011;65463;43.864;20.136;2024-03-02T08:56:48;6.30;;;3.08;;
55218;SDS011;65463;43.864;20.136;2024-03-02T08:59:15;5.13;;;2.75;;
55218;SDS011;65463;43.864;20.136;2024-03-02T09:01:41;5.88;;;2.80;;
55218;SDS011;65463;43.864;20.136;2024-03-02T09:04:08;10.00;;;2.92;;
55218;SDS011;65463;43.864;20.136;2024-03-02T09:06:34;7.13;;;2.88;;
55218;SDS011;65463;43.864;20.136;2024-03-02T09:09:00;6.57;;;3.00;;
55218;SDS011;65463;43.864;20.136;2024-03-02T09:11:26;8.35;;;2.90;;
55218;SDS011;65463;43.864;20.136;2024-03-02T09:13:52;5.55;;;2.40;;
55218;SDS011;65463;43.864;20.136;2024-03-02T09:16:20;6.22;;;2.88;;
55218;SDS011;65463;43.864;20.136;2024-03-02T09:18:47;6.93;;;2.60;;
55218;SDS011;65463;43.864;20.136;2024-03-02T09:21:13;6.57;;;2.15;;
55218;SDS011;65463;43.864;20.136;2024-03-02T09:23:40;5.47;;;3.00;;
55218;SDS011;65463;43.864;20.136;2024-03-02T09:26:06;8.02;;;3.47;;
55218;SDS011;65463;43.864;20.136;2024-03-02T09:28:32;6.45;;;2.10;;
55218;SDS011;65463;43.864;20.136;2024-03-02T09:31:00;7.32;;;2.17;;
55218;SDS011;65463;43.864;20.136;2024-03-02T09:33:26;3.38;;;1.60;;
55218;SDS011;65463;43.864;20.136;2024-03-02T09:35:52;4.90;;;2.22;;
55218;SDS011;65463;43.864;20.136;2024-03-02T09:38:18;5.18;;;1.52;;
55218;SDS011;65463;43.864;20.136;2024-03-02T09:40:45;4.32;;;1.67;;
55218;SDS011;65463;43.864;20.136;2024-03-02T09:43:11;3.67;;;1.80;;
55218;SDS011;65463;43.864;20.136;2024-03-02T09:45:38;3.65;;;1.60;;
55218;SDS011;65463;43.864;20.136;2024-03-02T09:48:05;3.33;;;1.58;;
55218;SDS011;65463;43.864;20.136;2024-03-02T09:50:31;5.28;;;1.63;;
55218;SDS011;65463;43.864;20.136;2024-03-02T09:52:57;7.10;;;1.73;;
55218;SDS011;65463;43.864;20.136;2024-03-02T09:55:24;3.72;;;1.30;;
55218;SDS011;65463;43.864;20.136;2024-03-02T09:57:50;4.00;;;1.40;;
55218;SDS011;65463;43.864;20.136;2024-03-02T10:00:16;7.10;;;3.10;;
55218;SDS011;65463;43.864;20.136;2024-03-02T10:02:42;3.55;;;1.90;;
55218;SDS011;65463;43.864;20.136;2024-03-02T10:05:09;3.17;;;1.58;;
55218;SDS011;65463;43.864;20.136;2024-03-02T10:07:36;4.28;;;1.65;;
55218;SDS011;65463;43.864;20.136;2024-03-02T10:10:12;5.53;;;1.60;;
55218;SDS011;65463;43.864;20.136;2024-03-02T10:12:39;3.38;;;1.70;;
55218;SDS011;65463;43.864;20.136;2024-03-02T10:15:05;4.80;;;1.65;;
55218;SDS011;65463;43.864;20.136;2024-03-02T10:17:32;5.65;;;2.00;;
55218;SDS011;65463;43.864;20.136;2024-03-02T10:19:58;4.60;;;1.67;;
55218;SDS011;65463;43.864;20.136;2024-03-02T10:22:25;3.60;;;1.65;;
55218;SDS011;65463;43.864;20.136;2024-03-02T10:24:51;4.65;;;1.60;;
55218;SDS011;65463;43.864;20.136;2024-03-02T10:27:22;6.07;;;1.55;;
55218;SDS011;65463;43.864;20.136;2024-03-02T10:29:49;4.43;;;1.40;;
55218;SDS011;65463;43.864;20.136;2024-03-02T10:32:15;3.33;;;1.15;;
55218;SDS011;65463;43.864;20.136;2024-03-02T10:34:42;3.65;;;1.10;;
55218;SDS011;65463;43.864;20.136;2024-03-02T10:37:10;1.35;;;0.82;;
55218;SDS011;65463;43.864;20.136;2024-03-02T10:39:36;3.90;;;1.30;;
55218;SDS011;65463;43.864;20.136;2024-03-02T10:42:05;3.97;;;1.15;;
55218;SDS011;65463;43.864;20.136;2024-03-02T10:44:32;3.50;;;1.40;;
55218;SDS011;65463;43.864;20.136;2024-03-02T10:47:02;2.78;;;1.30;;
55218;SDS011;65463;43.864;20.136;2024-03-02T10:49:29;2.55;;;1.30;;
55218;SDS011;65463;43.864;20.136;2024-03-02T10:51:56;4.55;;;1.40;;
55218;SDS011;65463;43.864;20.136;2024-03-02T10:54:22;4.05;;;2.08;;
55218;SDS011;65463;43.864;20.136;2024-03-02T10:56:52;6.20;;;2.38;;
55218;SDS011;65463;43.864;20.136;2024-03-02T10:59:28;4.45;;;2.63;;
55218;SDS011;65463;43.864;20.136;2024-03-02T11:01:59;8.73;;;4.45;;
55218;SDS011;65463;43.864;20.136;2024-03-02T11:04:26;4.85;;;3.00;;
55218;SDS011;65463;43.864;20.136;2024-03-02T11:06:54;5.55;;;2.30;;
55218;SDS011;65463;43.864;20.136;2024-03-02T11:11:59;4.80;;;2.42;;
55218;SDS011;65463;43.864;20.136;2024-03-02T11:14:27;4.47;;;2.22;;
55218;SDS011;65463;43.864;20.136;2024-03-02T11:16:58;5.68;;;2.20;;
55218;SDS011;65463;43.864;20.136;2024-03-02T11:19:25;5.28;;;2.15;;
55218;SDS011;65463;43.864;20.136;2024-03-02T11:21:52;6.13;;;2.20;;
55218;SDS011;65463;43.864;20.136;2024-03-02T11:26:53;3.50;;;1.95;;
55218;SDS011;65463;43.864;20.136;2024-03-02T11:32:02;6.88;;;2.10;;
55218;SDS011;65463;43.864;20.136;2024-03-02T11:36:58;4.90;;;2.38;;
55218;SDS011;65463;43.864;20.136;2024-03-02T11:39:25;5.25;;;2.00;;
55218;SDS011;65463;43.864;20.136;2024-03-02T11:41:52;3.42;;;1.92;;
55218;SDS011;65463;43.864;20.136;2024-03-02T11:44:18;5.15;;;2.30;;
55218;SDS011;65463;43.864;20.136;2024-03-02T11:46:45;4.38;;;1.95;;
55218;SDS011;65463;43.864;20.136;2024-03-02T11:49:14;6.47;;;2.05;;
55218;SDS011;65463;43.864;20.136;2024-03-02T11:51:50;3.67;;;2.13;;
55218;SDS011;65463;43.864;20.136;2024-03-02T11:54:19;5.40;;;2.00;;
55218;SDS011;65463;43.864;20.136;2024-03-02T11:56:45;5.13;;;1.98;;
55218;SDS011;65463;43.864;20.136;2024-03-02T11:59:11;4.80;;;1.67;;
55218;SDS011;65463;43.864;20.136;2024-03-02T12:01:38;4.88;;;1.70;;
55218;SDS011;65463;43.864;20.136;2024-03-02T12:04:04;3.08;;;1.70;;
55218;SDS011;65463;43.864;20.136;2024-03-02T12:06:31;2.95;;;1.60;;
55218;SDS011;65463;43.864;20.136;2024-03-02T12:08:57;3.45;;;1.90;;
55218;SDS011;65463;43.864;20.136;2024-03-02T12:11:23;3.03;;;1.55;;
55218;SDS011;65463;43.864;20.136;2024-03-02T12:13:52;4.50;;;1.70;;
55218;SDS011;65463;43.864;20.136;2024-03-02T12:16:25;4.03;;;1.70;;
55218;SDS011;65463;43.864;20.136;2024-03-02T12:18:52;5.55;;;1.73;;
55218;SDS011;65463;43.864;20.136;2024-03-02T12:21:18;3.38;;;2.08;;
55218;SDS011;65463;43.864;20.136;2024-03-02T12:23:44;4.70;;;2.03;;
55218;SDS011;65463;43.864;20.136;2024-03-02T12:26:10;2.33;;;1.48;;
55218;SDS011;65463;43.864;20.136;2024-03-02T12:28:37;3.60;;;1.73;;
55218;SDS011;65463;43.864;20.136;2024-03-02T12:31:03;4.32;;;1.80;;
55218;SDS011;65463;43.864;20.136;2024-03-02T12:33:29;3.95;;;1.73;;
55218;SDS011;65463;43.864;20.136;2024-03-02T12:35:56;4.03;;;1.95;;
55218;SDS011;65463;43.864;20.136;2024-03-02T12:38:23;4.13;;;1.80;;
55218;SDS011;65463;43.864;20.136;2024-03-02T12:40:51;3.50;;;1.50;;
55218;SDS011;65463;43.864;20.136;2024-03-02T12:43:20;2.90;;;1.63;;
55218;SDS011;65463;43.864;20.136;2024-03-02T12:45:46;4.65;;;1.90;;
55218;SDS011;65463;43.864;20.136;2024-03-02T12:48:12;4.55;;;1.85;;
55218;SDS011;65463;43.864;20.136;2024-03-02T12:50:39;3.85;;;2.03;;
55218;SDS011;65463;43.864;20.136;2024-03-02T12:53:06;3.17;;;1.90;;
55218;SDS011;65463;43.864;20.136;2024-03-02T12:55:33;2.97;;;1.85;;
55218;SDS011;65463;43.864;20.136;2024-03-02T12:57:59;6.57;;;2.00;;
55218;SDS011;65463;43.864;20.136;2024-03-02T13:00:28;4.15;;;1.80;;
55218;SDS011;65463;43.864;20.136;2024-03-02T13:02:57;4.32;;;1.90;;
55218;SDS011;65463;43.864;20.136;2024-03-02T13:05:29;5.97;;;1.60;;
55218;SDS011;65463;43.864;20.136;2024-03-02T13:07:56;4.07;;;2.00;;
55218;SDS011;65463;43.864;20.136;2024-03-02T13:10:22;4.38;;;1.92;;
55218;SDS011;65463;43.864;20.136;2024-03-02T13:12:48;5.13;;;2.10;;
55218;SDS011;65463;43.864;20.136;2024-03-02T13:15:14;4.38;;;1.75;;
55218;SDS011;65463;43.864;20.136;2024-03-02T13:17:40;3.08;;;1.90;;
55218;SDS011;65463;43.864;20.136;2024-03-02T13:20:06;3.72;;;1.85;;
55218;SDS011;65463;43.864;20.136;2024-03-02T13:22:35;4.53;;;1.60;;
55218;SDS011;65463;43.864;20.136;2024-03-02T13:25:02;4.28;;;1.70;;
55218;SDS011;65463;43.864;20.136;2024-03-02T13:27:31;4.13;;;1.80;;
55218;SDS011;65463;43.864;20.136;2024-03-02T13:29:57;3.97;;;1.75;;
55218;SDS011;65463;43.864;20.136;2024-03-02T13:32:23;4.38;;;1.80;;
55218;SDS011;65463;43.864;20.136;2024-03-02T13:34:51;4.38;;;1.88;;
55218;SDS011;65463;43.864;20.136;2024-03-02T13:37:17;4.70;;;1.90;;
55218;SDS011;65463;43.864;20.136;2024-03-02T13:39:43;5.10;;;2.00;;
55218;SDS011;65463;43.864;20.136;2024-03-02T13:42:09;3.05;;;1.75;;
55218;SDS011;65463;43.864;20.136;2024-03-02T13:44:37;3.15;;;1.80;;
55218;SDS011;65463;43.864;20.136;2024-03-02T13:47:03;2.75;;;1.67;;
55218;SDS011;65463;43.864;20.136;2024-03-02T13:49:30;3.28;;;1.83;;
55218;SDS011;65463;43.864;20.136;2024-03-02T13:52:01;2.88;;;1.50;;
55218;SDS011;65463;43.864;20.136;2024-03-02T13:54:36;6.85;;;1.90;;
55218;SDS011;65463;43.864;20.136;2024-03-02T13:57:05;4.88;;;2.03;;
55218;SDS011;65463;43.864;20.136;2024-03-02T13:59:32;4.18;;;1.90;;
55218;SDS011;65463;43.864;20.136;2024-03-02T14:02:02;3.05;;;1.60;;
55218;SDS011;65463;43.864;20.136;2024-03-02T14:04:34;3.90;;;1.90;;
55218;SDS011;65463;43.864;20.136;2024-03-02T14:07:01;4.32;;;1.63;;
55218;SDS011;65463;43.864;20.136;2024-03-02T14:09:27;5.30;;;2.67;;
55218;SDS011;65463;43.864;20.136;2024-03-02T14:11:54;3.00;;;1.85;;
55218;SDS011;65463;43.864;20.136;2024-03-02T14:14:20;3.30;;;1.58;;
55218;SDS011;65463;43.864;20.136;2024-03-02T14:16:46;4.35;;;1.90;;
55218;SDS011;65463;43.864;20.136;2024-03-02T14:19:12;4.13;;;1.77;;
55218;SDS011;65463;43.864;20.136;2024-03-02T14:21:39;3.83;;;1.75;;
55218;SDS011;65463;43.864;20.136;2024-03-02T14:24:05;3.42;;;1.65;;
55218;SDS011;65463;43.864;20.136;2024-03-02T14:26:34;4.63;;;2.10;;
55218;SDS011;65463;43.864;20.136;2024-03-02T14:29:03;7.50;;;2.30;;
55218;SDS011;65463;43.864;20.136;2024-03-02T14:31:29;8.57;;;2.00;;
55218;SDS011;65463;43.864;20.136;2024-03-02T14:33:56;3.42;;;1.80;;
55218;SDS011;65463;43.864;20.136;2024-03-02T14:36:22;3.90;;;1.75;;
55218;SDS011;65463;43.864;20.136;2024-03-02T14:38:48;3.08;;;1.60;;
55218;SDS011;65463;43.864;20.136;2024-03-02T14:41:15;4.15;;;1.50;;
55218;SDS011;65463;43.864;20.136;2024-03-02T14:43:41;4.20;;;1.80;;